createdAt,value
2022-08-05T00:01:52.243Z,2.63
2022-08-05T00:02:54.451Z,2.80
2022-08-05T00:03:57.084Z,2.60
2022-08-05T00:04:59.049Z,3.15
2022-08-05T00:06:05.693Z,3.15
2022-08-05T00:08:45.127Z,3.28
2022-08-05T00:09:49.052Z,2.67
2022-08-05T00:10:50.600Z,2.53
2022-08-05T00:11:59.882Z,2.53
2022-08-05T00:13:01.629Z,2.75
2022-08-05T00:14:12.025Z,3.10
2022-08-05T00:15:56.162Z,2.78
2022-08-05T00:17:55.304Z,2.70
2022-08-05T00:18:57.179Z,2.95
2022-08-05T00:20:03.071Z,2.42
2022-08-05T00:21:06.481Z,2.58
2022-08-05T00:22:11.282Z,2.83
2022-08-05T00:23:13.374Z,3.53
2022-08-05T00:24:24.295Z,3.22
2022-08-05T00:25:26.671Z,2.97
2022-08-05T00:26:51.692Z,2.75
2022-08-05T00:27:53.790Z,2.55
2022-08-05T00:28:56.867Z,2.65
2022-08-05T00:30:00.461Z,3.40
2022-08-05T00:31:05.644Z,2.50
2022-08-05T00:32:12.533Z,2.88
2022-08-05T00:34:54.968Z,2.78
2022-08-05T00:36:16.594Z,2.80
2022-08-05T00:37:20.959Z,2.83
2022-08-05T00:38:28.798Z,2.58
2022-08-05T00:39:44.347Z,2.30
2022-08-05T00:40:58.580Z,2.60
2022-08-05T00:42:01.345Z,3.03
2022-08-05T00:43:07.673Z,2.58
2022-08-05T00:44:09.380Z,2.78
2022-08-05T00:45:13.488Z,3.10
2022-08-05T00:46:15.183Z,2.83
2022-08-05T00:47:17.534Z,3.00
2022-08-05T00:48:27.743Z,2.97
2022-08-05T00:49:51.301Z,3.30
2022-08-05T00:50:53.510Z,3.03
2022-08-05T00:51:55.130Z,2.78
2022-08-05T00:52:56.666Z,3.10
2022-08-05T00:54:02.432Z,2.80
2022-08-05T00:55:06.617Z,3.30
2022-08-05T00:56:08.295Z,3.20
2022-08-05T00:57:09.925Z,3.40
2022-08-05T00:58:12.970Z,3.03
2022-08-05T00:59:14.839Z,2.90
2022-08-05T01:00:16.985Z,2.95
2022-08-05T01:01:42.191Z,3.20
2022-08-05T01:04:43.643Z,3.00
2022-08-05T01:05:45.144Z,3.00
2022-08-05T01:06:48.901Z,2.83
2022-08-05T01:08:30.422Z,3.35
2022-08-05T01:10:25.805Z,3.25
2022-08-05T01:11:36.935Z,3.13
2022-08-05T01:13:03.211Z,2.80
2022-08-05T01:14:15.477Z,2.65
2022-08-05T01:15:36.178Z,2.65
2022-08-05T01:16:44.220Z,2.60
2022-08-05T01:17:53.986Z,2.45
2022-08-05T01:19:00.994Z,2.67
2022-08-05T01:20:11.643Z,2.63
2022-08-05T01:21:38.325Z,2.47
2022-08-05T01:22:58.652Z,2.70
2022-08-05T01:24:16.289Z,2.85
2022-08-05T01:25:39.891Z,2.60
2022-08-05T01:26:59.490Z,2.22
2022-08-05T01:28:15.547Z,2.53
2022-08-05T01:29:23.137Z,2.42
2022-08-05T01:30:33.742Z,2.40
2022-08-05T01:31:44.930Z,2.33
2022-08-05T01:32:49.564Z,2.80
2022-08-05T01:33:56.862Z,2.28
2022-08-05T01:35:00.910Z,2.60
2022-08-05T01:36:12.914Z,2.60
2022-08-05T01:37:28.809Z,2.90
2022-08-05T01:38:32.643Z,2.70
2022-08-05T01:39:47.191Z,2.47
2022-08-05T01:40:50.374Z,2.60
2022-08-05T01:41:56.015Z,2.42
2022-08-05T01:43:00.638Z,2.40
2022-08-05T01:44:09.729Z,2.47
2022-08-05T01:45:14.138Z,2.67
2022-08-05T01:46:43.161Z,2.63
2022-08-05T01:47:43.674Z,2.38
2022-08-05T01:48:49.646Z,2.70
2022-08-05T01:50:01.641Z,2.60
2022-08-05T01:51:12.469Z,2.80
2022-08-05T01:52:17.878Z,2.90
2022-08-05T01:53:42.188Z,2.60
2022-08-05T01:54:48.743Z,3.25
2022-08-05T01:55:58.812Z,2.50
2022-08-05T01:58:10.983Z,3.05
2022-08-05T01:58:40.852Z,2.88
2022-08-05T01:59:49.570Z,2.53
2022-08-05T02:00:51.935Z,2.50
2022-08-05T02:01:56.537Z,2.42
2022-08-05T02:03:05.861Z,2.50
2022-08-05T02:04:10.269Z,2.60
2022-08-05T02:05:14.569Z,2.33
2022-08-05T02:06:37.090Z,2.70
2022-08-05T02:07:40.274Z,2.50
2022-08-05T02:08:54.920Z,2.60
2022-08-05T02:10:02.000Z,2.40
2022-08-05T02:11:08.207Z,2.50
2022-08-05T02:12:20.300Z,2.58
2022-08-05T02:13:28.290Z,2.78
2022-08-05T02:15:03.349Z,2.85
2022-08-05T02:16:16.396Z,2.50
2022-08-05T02:18:27.525Z,2.58
2022-08-05T02:18:50.752Z,2.70
2022-08-05T02:19:58.802Z,2.70
2022-08-05T02:21:13.241Z,2.42
2022-08-05T02:22:26.443Z,2.58
2022-08-05T02:23:33.730Z,2.72
2022-08-05T02:24:38.970Z,2.85
2022-08-05T02:25:49.573Z,2.85
2022-08-05T02:26:59.883Z,2.50
2022-08-05T02:28:14.079Z,2.78
2022-08-05T02:29:24.236Z,2.70
2022-08-05T02:30:51.633Z,2.30
2022-08-05T02:31:58.057Z,2.45
2022-08-05T02:33:02.145Z,2.60
2022-08-05T02:34:09.350Z,2.55
2022-08-05T02:35:19.100Z,2.65
2022-08-05T02:36:32.214Z,2.33
2022-08-05T02:37:35.054Z,2.30
2022-08-05T02:38:37.666Z,2.47
2022-08-05T02:39:41.266Z,2.22
2022-08-05T02:40:44.732Z,2.30
2022-08-05T02:42:00.781Z,2.45
2022-08-05T02:43:04.689Z,2.72
2022-08-05T02:44:11.176Z,2.50
2022-08-05T02:45:16.230Z,2.47
2022-08-05T02:46:25.178Z,2.50
2022-08-05T02:48:53.811Z,2.45
2022-08-05T02:49:55.642Z,2.42
2022-08-05T02:50:59.796Z,2.20
2022-08-05T02:52:03.689Z,2.00
2022-08-05T02:53:06.427Z,2.60
2022-08-05T02:54:36.019Z,2.30
2022-08-05T02:55:54.746Z,2.38
2022-08-05T02:56:58.769Z,2.40
2022-08-05T02:58:10.337Z,2.40
2022-08-05T02:59:17.484Z,2.58
2022-08-05T03:00:20.131Z,2.28
2022-08-05T03:01:25.156Z,2.35
2022-08-05T03:02:31.570Z,2.30
2022-08-05T03:04:03.329Z,2.38
2022-08-05T03:05:15.078Z,2.60
2022-08-05T03:06:55.387Z,2.78
2022-08-05T03:08:04.603Z,2.65
2022-08-05T03:09:02.914Z,2.30
2022-08-05T03:10:06.993Z,2.15
2022-08-05T03:11:57.556Z,2.20
2022-08-05T03:12:39.564Z,2.65
2022-08-05T03:13:51.438Z,2.90
2022-08-05T03:15:06.729Z,2.80
2022-08-05T03:16:08.961Z,2.20
2022-08-05T03:17:12.154Z,2.47
2022-08-05T03:18:14.601Z,3.08
2022-08-05T03:19:33.254Z,2.70
2022-08-05T03:20:36.294Z,2.70
2022-08-05T03:21:41.672Z,2.90
2022-08-05T03:22:50.813Z,2.50
2022-08-05T03:23:52.747Z,2.97
2022-08-05T03:24:55.716Z,2.50
2022-08-05T03:26:31.378Z,2.33
2022-08-05T03:27:39.177Z,3.20
2022-08-05T03:28:41.237Z,2.92
2022-08-05T03:29:45.165Z,2.90
2022-08-05T03:31:05.103Z,2.42
2022-08-05T03:32:08.749Z,2.92
2022-08-05T03:33:11.900Z,2.80
2022-08-05T03:34:14.173Z,3.10
2022-08-05T03:35:15.828Z,2.80
2022-08-05T03:36:17.531Z,2.40
2022-08-05T03:37:41.650Z,3.00
2022-08-05T03:38:52.545Z,3.03
2022-08-05T03:39:59.210Z,3.05
2022-08-05T03:41:08.547Z,2.97
2022-08-05T03:42:12.545Z,2.75
2022-08-05T03:43:58.316Z,2.67
2022-08-05T03:44:36.918Z,2.92
2022-08-05T03:45:55.297Z,3.35
2022-08-05T03:46:59.948Z,2.72
2022-08-05T03:48:01.587Z,2.67
2022-08-05T03:49:06.973Z,3.00
2022-08-05T03:50:10.079Z,3.00
2022-08-05T03:52:39.019Z,2.88
2022-08-05T03:54:53.273Z,3.15
2022-08-05T03:55:52.722Z,2.88
2022-08-05T03:56:09.283Z,3.10
2022-08-05T03:57:00.257Z,3.25
2022-08-05T03:58:03.475Z,3.17
2022-08-05T03:59:09.873Z,3.20
2022-08-05T04:00:15.876Z,3.03
2022-08-05T04:01:21.135Z,2.90
2022-08-05T04:02:37.544Z,3.13
2022-08-05T04:04:09.280Z,2.90
2022-08-05T04:05:10.193Z,3.00
2022-08-05T04:06:12.331Z,3.08
2022-08-05T04:07:14.430Z,2.80
2022-08-05T04:08:35.207Z,2.78
2022-08-05T04:09:38.636Z,2.97
2022-08-05T04:10:55.464Z,3.17
2022-08-05T04:11:57.302Z,2.95
2022-08-05T04:13:00.560Z,3.10
2022-08-05T04:14:05.838Z,3.17
2022-08-05T04:15:08.303Z,2.72
2022-08-05T04:16:25.508Z,3.10
2022-08-05T04:17:55.705Z,2.90
2022-08-05T04:18:57.879Z,2.70
2022-08-05T04:19:59.617Z,2.83
2022-08-05T04:21:06.780Z,2.97
2022-08-05T04:22:12.320Z,2.80
2022-08-05T04:23:16.111Z,3.13
2022-08-05T04:24:19.624Z,2.80
2022-08-05T04:25:56.887Z,2.70
2022-08-05T04:27:57.284Z,3.45
2022-08-05T04:28:59.075Z,3.30
2022-08-05T04:30:03.716Z,2.83
2022-08-05T04:31:08.267Z,3.30
2022-08-05T04:32:12.286Z,2.95
2022-08-05T04:33:15.493Z,2.78
2022-08-05T04:34:32.384Z,2.72
2022-08-05T04:36:15.939Z,3.03
2022-08-05T04:38:02.037Z,3.00
2022-08-05T04:39:08.140Z,3.13
2022-08-05T04:40:11.302Z,3.22
2022-08-05T04:41:12.953Z,3.10
2022-08-05T04:42:15.222Z,3.08
2022-08-05T04:43:16.938Z,2.80
2022-08-05T04:44:21.309Z,2.70
2022-08-05T04:45:48.434Z,3.30
2022-08-05T04:46:50.264Z,2.70
2022-08-05T04:47:54.349Z,2.78
2022-08-05T04:48:59.102Z,3.00
2022-08-05T04:50:11.453Z,2.83
2022-08-05T04:51:13.328Z,3.20
2022-08-05T04:52:16.667Z,2.90
2022-08-05T04:53:20.187Z,3.00
2022-08-05T04:54:22.551Z,2.97
2022-08-05T04:56:05.035Z,3.20
2022-08-05T04:57:54.144Z,3.17
2022-08-05T04:58:56.488Z,2.92
2022-08-05T04:59:58.644Z,3.25
2022-08-05T05:01:00.911Z,2.92
2022-08-05T05:02:34.891Z,3.33
2022-08-05T05:04:25.542Z,2.95
2022-08-05T05:05:29.132Z,3.20
2022-08-05T05:06:39.103Z,2.72
2022-08-05T05:07:56.203Z,3.13
2022-08-05T05:09:02.293Z,3.20
2022-08-05T05:10:07.590Z,3.00
2022-08-05T05:11:09.110Z,2.80
2022-08-05T05:12:10.627Z,2.78
2022-08-05T05:13:15.100Z,3.17
2022-08-05T05:14:16.642Z,2.80
2022-08-05T05:15:57.341Z,3.05
2022-08-05T05:16:39.992Z,3.20
2022-08-05T05:17:56.899Z,2.88
2022-08-05T05:19:18.550Z,2.90
2022-08-05T05:20:21.104Z,3.00
2022-08-05T05:21:28.117Z,3.08
2022-08-05T05:22:34.760Z,3.22
2022-08-05T05:24:03.781Z,2.80
2022-08-05T05:25:16.630Z,2.70
2022-08-05T05:26:18.739Z,2.80
2022-08-05T05:27:20.240Z,2.90
2022-08-05T05:28:22.923Z,2.90
2022-08-05T05:30:03.586Z,2.80
2022-08-05T05:31:51.497Z,3.10
2022-08-05T05:32:54.398Z,3.72
2022-08-05T05:33:59.183Z,2.92
2022-08-05T05:35:04.334Z,2.80
2022-08-05T05:36:08.246Z,3.28
2022-08-05T05:37:13.025Z,2.72
2022-08-05T05:38:27.063Z,2.70
2022-08-05T05:39:34.374Z,3.25
2022-08-05T05:40:37.655Z,3.05
2022-08-05T05:41:42.970Z,3.30
2022-08-05T05:42:56.299Z,2.95
2022-08-05T05:44:00.604Z,2.90
2022-08-05T05:45:02.908Z,3.10
2022-08-05T05:46:05.484Z,2.70
2022-08-05T05:47:13.174Z,2.85
2022-08-05T05:48:27.762Z,3.20
2022-08-05T05:49:29.469Z,2.88
2022-08-05T05:50:31.303Z,3.30
2022-08-05T05:51:49.645Z,2.70
2022-08-05T05:52:51.642Z,3.00
2022-08-05T05:53:57.260Z,3.05
2022-08-05T05:55:07.436Z,3.35
2022-08-05T05:56:26.008Z,2.70
2022-08-05T05:57:43.023Z,2.90
2022-08-05T05:58:54.659Z,2.78
2022-08-05T05:59:57.405Z,3.10
2022-08-05T06:01:12.263Z,3.10
2022-08-05T06:02:15.043Z,3.35
2022-08-05T06:03:40.757Z,2.97
2022-08-05T06:05:41.448Z,3.17
2022-08-05T06:06:47.392Z,2.85
2022-08-05T06:08:01.254Z,3.03
2022-08-05T06:09:05.486Z,2.95
2022-08-05T06:10:10.631Z,2.83
2022-08-05T06:11:13.448Z,3.50
2022-08-05T06:12:15.062Z,2.75
2022-08-05T06:13:17.156Z,3.00
2022-08-05T06:14:19.281Z,3.22
2022-08-05T06:15:24.119Z,3.05
2022-08-05T06:16:30.168Z,2.97
2022-08-05T06:17:52.815Z,2.80
2022-08-05T06:18:55.914Z,2.80
2022-08-05T06:20:01.733Z,2.97
2022-08-05T06:21:03.626Z,4.13
2022-08-05T06:22:09.748Z,3.28
2022-08-05T06:23:11.292Z,2.78
2022-08-05T06:24:14.777Z,2.70
2022-08-05T06:25:24.479Z,3.13
2022-08-05T06:26:40.000Z,2.80
2022-08-05T06:28:11.583Z,3.13
2022-08-05T06:30:36.356Z,3.87
2022-08-05T06:31:38.236Z,3.20
2022-08-05T06:32:43.545Z,3.03
2022-08-05T06:34:07.037Z,3.30
2022-08-05T06:35:15.473Z,2.92
2022-08-05T06:37:57.728Z,3.00
2022-08-05T06:39:01.100Z,3.20
2022-08-05T06:40:03.209Z,3.03
2022-08-05T06:41:07.844Z,3.17
2022-08-05T06:42:09.814Z,2.90
2022-08-05T06:43:59.693Z,2.80
2022-08-05T06:44:35.237Z,3.50
2022-08-05T06:46:02.882Z,2.83
2022-08-05T06:48:37.285Z,2.97
2022-08-05T06:50:00.282Z,2.95
2022-08-05T06:51:51.522Z,3.75
2022-08-05T06:53:04.047Z,3.20
2022-08-05T06:54:19.018Z,3.15
2022-08-05T06:55:21.006Z,3.50
2022-08-05T06:56:34.380Z,3.40
2022-08-05T06:58:02.663Z,4.90
2022-08-05T06:59:59.556Z,4.60
2022-08-05T07:01:05.804Z,3.83
2022-08-05T07:02:07.619Z,4.60
2022-08-05T07:03:09.786Z,4.63
2022-08-05T07:04:13.991Z,3.53
2022-08-05T07:05:18.741Z,3.60
2022-08-05T07:06:21.114Z,3.88
2022-08-05T07:07:24.087Z,4.38
2022-08-05T07:08:37.242Z,3.63
2022-08-05T07:09:43.382Z,3.97
2022-08-05T07:10:52.497Z,3.45
2022-08-05T07:11:56.428Z,3.97
2022-08-05T07:13:03.445Z,3.47
2022-08-05T07:14:05.054Z,3.72
2022-08-05T07:15:08.854Z,3.90
2022-08-05T07:16:12.136Z,3.40
2022-08-05T07:18:53.482Z,3.58
2022-08-05T07:22:29.134Z,3.37
2022-08-05T07:23:31.882Z,2.75
2022-08-05T07:24:35.101Z,2.95
2022-08-05T07:25:55.984Z,3.13
2022-08-05T07:26:59.795Z,2.63
2022-08-05T07:28:08.232Z,2.80
2022-08-05T07:29:13.391Z,2.38
2022-08-05T07:30:23.909Z,2.83
2022-08-05T07:31:40.883Z,2.50
2022-08-05T07:33:55.215Z,2.13
2022-08-05T07:35:01.423Z,2.47
2022-08-05T07:37:25.265Z,2.20
2022-08-05T07:38:43.694Z,2.97
2022-08-05T07:40:26.480Z,2.58
2022-08-05T07:42:33.927Z,2.33
2022-08-05T07:43:37.993Z,2.45
2022-08-05T07:44:39.508Z,3.15
2022-08-05T07:45:57.192Z,2.35
2022-08-05T07:47:00.020Z,2.30
2022-08-05T07:48:02.019Z,2.58
2022-08-05T07:49:06.142Z,2.50
2022-08-05T07:50:10.164Z,2.30
2022-08-05T07:51:23.288Z,2.47
2022-08-05T07:53:50.292Z,2.30
2022-08-05T07:54:52.726Z,1.98
2022-08-05T07:56:05.777Z,1.80
2022-08-05T07:57:17.720Z,2.00
2022-08-05T07:59:53.626Z,2.00
2022-08-05T08:00:55.437Z,2.05
2022-08-05T08:01:57.639Z,1.90
2022-08-05T08:03:14.756Z,1.80
2022-08-05T08:04:17.322Z,1.77
2022-08-05T08:06:41.674Z,1.95
2022-08-05T08:08:00.201Z,2.03
2022-08-05T08:09:02.094Z,1.58
2022-08-05T08:10:05.731Z,1.80
2022-08-05T08:11:08.972Z,1.80
2022-08-05T08:12:35.236Z,1.70
2022-08-05T08:14:51.232Z,1.77
2022-08-05T08:16:34.458Z,1.30
2022-08-05T08:18:18.092Z,1.50
2022-08-05T08:20:22.361Z,1.90
2022-08-05T08:21:03.231Z,1.70
2022-08-05T08:22:05.517Z,1.20
2022-08-05T08:24:00.011Z,2.00
2022-08-05T08:25:59.714Z,1.98
2022-08-05T08:27:06.905Z,1.75
2022-08-05T08:28:18.062Z,1.80
2022-08-05T08:29:45.310Z,1.65
2022-08-05T08:30:47.704Z,1.70
2022-08-05T08:31:52.003Z,1.52
2022-08-05T08:32:53.535Z,2.00
2022-08-05T08:33:55.109Z,1.90
2022-08-05T08:34:57.702Z,2.00
2022-08-05T08:36:18.430Z,1.70
2022-08-05T08:38:35.574Z,1.60
2022-08-05T08:39:38.147Z,1.73
2022-08-05T08:40:51.530Z,1.90
2022-08-05T08:42:00.115Z,1.80
2022-08-05T08:44:56.503Z,1.63
2022-08-05T08:45:54.023Z,2.15
2022-08-05T08:46:56.916Z,1.98
2022-08-05T08:48:10.478Z,2.22
2022-08-05T08:50:12.841Z,1.90
2022-08-05T08:51:03.977Z,2.28
2022-08-05T08:52:13.670Z,2.70
2022-08-05T08:53:17.420Z,2.17
2022-08-05T08:54:20.992Z,2.78
2022-08-05T08:55:32.185Z,2.40
2022-08-05T08:56:51.024Z,2.30
2022-08-05T08:57:58.041Z,2.65
2022-08-05T08:59:00.999Z,1.85
2022-08-05T09:00:04.933Z,1.85
2022-08-05T09:01:10.892Z,2.00
2022-08-05T09:02:20.818Z,1.85
2022-08-05T09:03:22.606Z,1.70
2022-08-05T09:04:30.704Z,1.63
2022-08-05T09:05:38.991Z,1.98
2022-08-05T09:06:54.223Z,1.52
2022-08-05T09:07:57.823Z,2.15
2022-08-05T09:09:01.951Z,2.13
2022-08-05T09:10:04.031Z,2.40
2022-08-05T09:11:07.382Z,1.73
2022-08-05T09:12:20.570Z,1.90
2022-08-05T09:13:31.942Z,1.83
2022-08-05T09:14:56.546Z,2.00
2022-08-05T09:16:03.163Z,1.80
2022-08-05T09:17:08.183Z,1.35
2022-08-05T09:18:13.430Z,1.60
2022-08-05T09:19:15.236Z,1.73
2022-08-05T09:20:36.435Z,2.40
2022-08-05T09:22:23.040Z,1.52
2022-08-05T09:23:09.799Z,1.63
2022-08-05T09:24:20.889Z,1.58
2022-08-05T09:26:02.193Z,1.90
2022-08-05T09:28:04.668Z,1.45
2022-08-05T09:29:09.075Z,2.28
2022-08-05T09:30:16.460Z,2.00
2022-08-05T09:31:44.060Z,1.38
2022-08-05T09:32:46.673Z,1.83
2022-08-05T09:33:55.285Z,1.77
2022-08-05T09:34:57.780Z,2.13
2022-08-05T09:36:11.582Z,1.70
2022-08-05T09:37:19.117Z,1.65
2022-08-05T09:38:55.927Z,1.60
2022-08-05T09:39:58.863Z,1.60
2022-08-05T09:41:05.559Z,1.80
2022-08-05T09:42:11.413Z,1.95
2022-08-05T09:43:28.195Z,1.17
2022-08-05T09:44:50.467Z,1.80
2022-08-05T09:46:07.887Z,1.98
2022-08-05T09:47:15.633Z,1.30
2022-08-05T09:48:22.083Z,1.92
2022-08-05T09:49:54.785Z,2.20
2022-08-05T09:50:57.538Z,2.22
2022-08-05T09:51:59.066Z,2.40
2022-08-05T09:53:00.580Z,2.15
2022-08-05T09:54:02.746Z,2.03
2022-08-05T09:55:55.584Z,2.10
2022-08-05T09:56:29.467Z,1.48
2022-08-05T09:57:39.636Z,1.65
2022-08-05T09:58:56.015Z,2.22
2022-08-05T09:59:58.901Z,2.03
2022-08-05T10:01:13.260Z,2.05
2022-08-05T10:02:33.613Z,1.50
2022-08-05T10:03:56.889Z,1.60
2022-08-05T10:05:04.079Z,1.80
2022-08-05T10:06:15.655Z,1.83
2022-08-05T10:07:20.781Z,1.95
2022-08-05T10:08:39.353Z,1.90
2022-08-05T10:10:13.833Z,2.03
2022-08-05T10:11:17.526Z,1.80
2022-08-05T10:12:33.437Z,1.98
2022-08-05T10:13:45.799Z,1.88
2022-08-05T10:14:50.114Z,2.00
2022-08-05T10:15:56.379Z,2.25
2022-08-05T10:17:36.964Z,2.30
2022-08-05T10:18:37.346Z,2.03
2022-08-05T10:20:02.794Z,1.92
2022-08-05T10:21:08.361Z,1.60
2022-08-05T10:22:15.666Z,2.10
2022-08-05T10:23:55.567Z,1.90
2022-08-05T10:24:54.444Z,2.10
2022-08-05T10:25:56.701Z,2.38
2022-08-05T10:27:00.311Z,2.03
2022-08-05T10:28:13.723Z,2.00
2022-08-05T10:30:41.068Z,1.80
2022-08-05T10:32:53.122Z,1.95
2022-08-05T10:32:53.843Z,2.53
2022-08-05T10:33:36.727Z,1.70
2022-08-05T10:34:41.938Z,1.98
2022-08-05T10:35:44.345Z,2.00
2022-08-05T10:36:46.573Z,1.90
2022-08-05T10:37:48.949Z,1.90
2022-08-05T10:39:00.557Z,2.00
2022-08-05T10:41:28.089Z,2.00
2022-08-05T10:42:52.121Z,2.20
2022-08-05T10:43:59.520Z,1.80
2022-08-05T10:45:01.900Z,1.90
2022-08-05T10:46:24.043Z,2.00
2022-08-05T10:47:32.514Z,1.90
2022-08-05T10:48:52.807Z,1.80
2022-08-05T10:50:35.249Z,2.00
2022-08-05T10:51:29.128Z,2.08
2022-08-05T10:52:39.290Z,1.95
2022-08-05T10:53:55.592Z,1.90
2022-08-05T10:55:05.253Z,1.60
2022-08-05T10:56:21.031Z,1.75
2022-08-05T10:57:31.747Z,1.83
2022-08-05T10:58:47.818Z,1.95
2022-08-05T11:00:12.061Z,2.20
2022-08-05T11:01:54.823Z,1.85
2022-08-05T11:03:23.063Z,1.75
2022-08-05T11:04:30.895Z,1.80
2022-08-05T11:05:33.514Z,2.00
2022-08-05T11:06:56.076Z,2.00
2022-08-05T11:08:02.916Z,2.10
2022-08-05T11:09:18.507Z,2.05
2022-08-05T11:10:27.609Z,2.25
2022-08-05T11:11:44.675Z,1.80
2022-08-05T11:12:55.675Z,1.92
2022-08-05T11:13:58.553Z,2.00
2022-08-05T11:15:19.130Z,1.80
2022-08-05T11:16:23.392Z,1.85
2022-08-05T11:17:59.417Z,2.00
2022-08-05T11:20:16.825Z,2.00
2022-08-05T11:20:48.457Z,1.65
2022-08-05T11:21:49.983Z,1.73
2022-08-05T11:22:53.969Z,2.10
2022-08-05T11:24:30.014Z,2.00
2022-08-05T11:26:04.789Z,2.25
2022-08-05T11:27:45.813Z,1.80
2022-08-05T11:28:53.313Z,1.95
2022-08-05T11:29:59.429Z,2.30
2022-08-05T11:31:54.230Z,2.25
2022-08-05T11:32:50.877Z,1.90
2022-08-05T11:33:56.313Z,1.80
2022-08-05T11:35:00.155Z,2.00
2022-08-05T11:36:07.972Z,1.90
2022-08-05T11:38:28.002Z,1.70
2022-08-05T11:38:51.959Z,2.22
2022-08-05T11:40:00.528Z,1.85
2022-08-05T11:41:34.349Z,2.00
2022-08-05T11:42:28.377Z,2.00
2022-08-05T11:43:58.459Z,2.13
2022-08-05T11:45:00.740Z,2.05
2022-08-05T11:46:15.318Z,1.75
2022-08-05T11:47:48.903Z,1.80
2022-08-05T11:48:46.288Z,1.98
2022-08-05T11:49:50.957Z,2.05
2022-08-05T11:50:54.057Z,2.00
2022-08-05T11:51:57.577Z,1.85
2022-08-05T11:53:04.584Z,2.30
2022-08-05T11:54:13.888Z,1.90
2022-08-05T11:55:15.904Z,2.10
2022-08-05T11:56:17.642Z,2.20
2022-08-05T11:57:25.613Z,1.98
2022-08-05T11:58:30.551Z,1.90
2022-08-05T11:59:32.540Z,2.10
2022-08-05T12:01:01.949Z,2.20
2022-08-05T12:02:23.757Z,2.10
2022-08-05T12:03:31.585Z,1.90
2022-08-05T12:04:43.112Z,2.40
2022-08-05T12:06:02.676Z,2.10
2022-08-05T12:07:06.872Z,2.30
2022-08-05T12:08:11.855Z,2.03
2022-08-05T12:09:52.747Z,2.20
2022-08-05T12:10:49.661Z,2.20
2022-08-05T12:11:54.411Z,2.17
2022-08-05T12:13:03.903Z,2.10
2022-08-05T12:14:18.729Z,2.30
2022-08-05T12:15:20.985Z,2.15
2022-08-05T12:16:46.484Z,2.20
2022-08-05T12:18:03.878Z,2.08
2022-08-05T12:20:26.352Z,2.15
2022-08-05T12:20:41.544Z,2.10
2022-08-05T12:21:45.588Z,1.92
2022-08-05T12:22:48.849Z,2.05
2022-08-05T12:23:57.275Z,2.35
2022-08-05T12:25:01.865Z,1.90
2022-08-05T12:26:03.484Z,2.10
2022-08-05T12:27:09.699Z,2.13
2022-08-05T12:28:33.947Z,2.30
2022-08-05T12:29:37.971Z,2.05
2022-08-05T12:30:45.908Z,2.10
2022-08-05T12:31:53.442Z,2.08
2022-08-05T12:32:56.405Z,2.25
2022-08-05T12:33:58.390Z,2.28
2022-08-05T12:35:00.205Z,2.10
2022-08-05T12:36:08.343Z,2.15
2022-08-05T12:37:16.991Z,2.03
2022-08-05T12:38:22.325Z,2.22
2022-08-05T12:39:37.519Z,2.25
2022-08-05T12:40:43.577Z,2.28
2022-08-05T12:42:09.517Z,2.50
2022-08-05T12:43:20.654Z,2.30
2022-08-05T12:44:33.837Z,2.13
2022-08-05T12:45:42.515Z,1.92
2022-08-05T12:46:53.974Z,2.45
2022-08-05T12:48:01.528Z,2.20
2022-08-05T12:49:17.045Z,2.55
2022-08-05T12:50:21.123Z,2.10
2022-08-05T12:52:14.160Z,2.15
2022-08-05T12:52:55.418Z,2.30
2022-08-05T12:54:02.725Z,2.20
2022-08-05T12:55:16.905Z,2.33
2022-08-05T12:56:35.297Z,2.15
2022-08-05T12:58:50.804Z,2.10
2022-08-05T12:59:20.997Z,2.17
2022-08-05T13:02:00.256Z,2.00
2022-08-05T13:02:01.798Z,1.80
2022-08-05T13:03:12.341Z,2.10
2022-08-05T13:04:20.906Z,2.30
2022-08-05T13:05:23.146Z,2.10
2022-08-05T13:06:26.246Z,2.13
2022-08-05T13:07:57.306Z,2.03
2022-08-05T13:08:52.706Z,2.20
2022-08-05T13:09:57.965Z,2.22
2022-08-05T13:11:00.755Z,2.35
2022-08-05T13:12:04.420Z,1.98
2022-08-05T13:13:09.706Z,2.08
2022-08-05T13:14:36.917Z,2.35
2022-08-05T13:15:49.233Z,2.20
2022-08-05T13:16:56.352Z,2.15
2022-08-05T13:17:59.336Z,2.35
2022-08-05T13:19:01.620Z,2.30
2022-08-05T13:20:05.570Z,2.25
2022-08-05T13:21:08.560Z,2.30
2022-08-05T13:22:12.219Z,2.40
2022-08-05T13:23:13.843Z,2.08
2022-08-05T13:24:44.989Z,2.08
2022-08-05T13:25:52.744Z,2.05
2022-08-05T13:27:01.424Z,9.85
2022-08-05T13:28:03.490Z,14.45
2022-08-05T13:29:05.469Z,2.10
2022-08-05T13:30:34.571Z,2.13
2022-08-05T13:31:34.072Z,2.10
2022-08-05T13:32:53.708Z,2.28
2022-08-05T13:34:23.399Z,2.13
2022-08-05T13:35:22.250Z,2.10
2022-08-05T13:36:33.399Z,2.45
2022-08-05T13:37:35.426Z,2.20
2022-08-05T13:38:38.256Z,2.10
2022-08-05T13:40:16.783Z,2.40
2022-08-05T13:41:07.480Z,2.05
2022-08-05T13:42:14.649Z,2.15
2022-08-05T13:43:21.959Z,2.00
2022-08-05T13:44:23.815Z,2.08
2022-08-05T13:45:33.990Z,2.45
2022-08-05T13:48:09.767Z,2.35
2022-08-05T13:49:23.382Z,2.08
2022-08-05T13:50:25.013Z,2.38
2022-08-05T13:51:29.902Z,2.00
2022-08-05T13:52:42.091Z,2.25
2022-08-05T13:53:47.720Z,2.08
2022-08-05T13:54:53.215Z,2.42
2022-08-05T13:55:58.896Z,2.22
2022-08-05T13:57:04.962Z,2.00
2022-08-05T13:58:07.890Z,2.00
2022-08-05T13:59:20.132Z,2.20
2022-08-05T14:00:26.778Z,2.13
2022-08-05T14:01:36.391Z,2.20
2022-08-05T14:02:48.383Z,2.15
2022-08-05T14:03:50.500Z,2.20
2022-08-05T14:04:52.112Z,2.33
2022-08-05T14:06:25.222Z,2.60
2022-08-05T14:07:25.577Z,2.33
2022-08-05T14:08:38.006Z,2.10
2022-08-05T14:09:42.994Z,2.28
2022-08-05T14:10:48.548Z,2.63
2022-08-05T14:12:03.937Z,2.20
2022-08-05T14:13:12.968Z,2.15
2022-08-05T14:14:25.505Z,2.30
2022-08-05T14:16:04.342Z,2.22
2022-08-05T14:16:55.316Z,2.10
2022-08-05T14:17:59.544Z,2.08
2022-08-05T14:19:04.493Z,2.28
2022-08-05T14:20:07.912Z,2.30
2022-08-05T14:21:23.903Z,1.90
2022-08-05T14:22:34.327Z,2.25
2022-08-05T14:23:36.814Z,2.28
2022-08-05T14:24:38.929Z,2.47
2022-08-05T14:25:45.092Z,2.17
2022-08-05T14:27:08.483Z,1.85
2022-08-05T14:28:08.872Z,2.50
2022-08-05T14:29:29.008Z,2.17
2022-08-05T14:30:32.991Z,2.20
2022-08-05T14:32:02.220Z,2.20
2022-08-05T14:32:57.114Z,3.13
2022-08-05T14:34:00.854Z,2.10
2022-08-05T14:35:03.505Z,2.30
2022-08-05T14:36:05.404Z,2.15
2022-08-05T14:37:06.975Z,2.30
2022-08-05T14:38:08.519Z,2.60
2022-08-05T14:39:30.972Z,2.63
2022-08-05T14:43:59.127Z,2.55
2022-08-05T14:44:46.668Z,2.47
2022-08-05T14:45:48.217Z,2.60
2022-08-05T14:46:49.767Z,2.65
2022-08-05T14:48:04.070Z,2.40
2022-08-05T14:49:08.146Z,2.50
2022-08-05T14:50:18.256Z,2.40
2022-08-05T14:51:20.754Z,2.40
2022-08-05T14:52:50.531Z,2.17
2022-08-05T14:53:45.046Z,2.40
2022-08-05T14:54:53.114Z,2.50
2022-08-05T14:55:55.013Z,3.10
2022-08-05T14:56:57.787Z,2.47
2022-08-05T14:57:59.407Z,2.10
2022-08-05T14:59:02.040Z,2.10
2022-08-05T15:00:07.849Z,1.95
2022-08-05T15:01:16.272Z,2.30
2022-08-05T15:02:19.104Z,2.42
2022-08-05T15:03:22.858Z,2.10
2022-08-05T15:04:27.463Z,2.30
2022-08-05T15:06:12.869Z,1.95
2022-08-05T15:06:52.789Z,2.53
2022-08-05T15:08:12.274Z,2.58
2022-08-05T15:09:50.561Z,2.35
2022-08-05T15:10:39.918Z,2.30
2022-08-05T15:11:51.351Z,2.35
2022-08-05T15:13:00.821Z,6.30
2022-08-05T15:14:03.648Z,2.20
2022-08-05T15:15:15.422Z,2.33
2022-08-05T15:16:17.472Z,2.03
2022-08-05T15:17:45.808Z,2.58
2022-08-05T15:18:41.299Z,2.42
2022-08-05T15:19:42.871Z,2.60
2022-08-05T15:20:50.919Z,2.22
2022-08-05T15:21:52.544Z,2.50
2022-08-05T15:22:55.080Z,2.30
2022-08-05T15:23:56.852Z,2.30
2022-08-05T15:24:59.515Z,2.30
2022-08-05T15:26:03.125Z,2.53
2022-08-05T15:27:04.865Z,2.10
2022-08-05T15:28:14.360Z,2.25
2022-08-05T15:29:16.609Z,2.75
2022-08-05T15:30:19.778Z,2.45
2022-08-05T15:31:21.392Z,2.25
2022-08-05T15:32:23.352Z,2.40
2022-08-05T15:34:05.115Z,2.25
2022-08-05T15:34:50.794Z,2.30
2022-08-05T15:35:52.337Z,2.30
2022-08-05T15:36:53.884Z,2.42
2022-08-05T15:38:31.749Z,2.78
2022-08-05T15:41:00.921Z,2.55
2022-08-05T15:41:03.180Z,2.72
2022-08-05T15:42:00.402Z,2.38
2022-08-05T15:43:11.238Z,2.70
2022-08-05T15:44:21.600Z,2.60
2022-08-05T15:45:37.877Z,2.72
2022-08-05T15:46:40.493Z,2.47
2022-08-05T15:47:44.043Z,2.70
2022-08-05T15:48:52.886Z,2.17
2022-08-05T15:49:59.629Z,2.47
2022-08-05T15:51:03.606Z,2.63
2022-08-05T15:52:13.813Z,2.58
2022-08-05T15:53:18.342Z,2.80
2022-08-05T15:54:34.913Z,2.58
2022-08-05T15:56:03.498Z,3.00
2022-08-05T15:57:01.254Z,2.33
2022-08-05T15:59:21.923Z,2.42
2022-08-05T16:00:30.642Z,2.60
2022-08-05T16:01:52.289Z,2.90
2022-08-05T16:02:55.008Z,2.70
2022-08-05T16:03:57.522Z,2.70
2022-08-05T16:04:59.101Z,2.58
2022-08-05T16:06:00.713Z,2.55
2022-08-05T16:07:02.570Z,2.42
2022-08-05T16:08:06.616Z,2.58
2022-08-05T16:09:08.155Z,2.70
2022-08-05T16:10:11.552Z,2.63
2022-08-05T16:11:13.283Z,2.40
2022-08-05T16:12:15.815Z,2.53
2022-08-05T16:13:23.660Z,2.58
2022-08-05T16:14:25.622Z,2.60
2022-08-05T16:15:32.427Z,2.60